Time;durP1;ratioP1;P1;durP2;ratioP2;P2;SDS_P1;SDS_P2;PMS_P1;PMS_P2;Temp;Humidity;BMP_temperature;BMP_pressure;BME280_temperature;BME280_humidity;BME280_pressure;Samples;Min_cycle;Max_cycle;Signal;HPM_P1;HPM_P2
2021/07/09 00:02:07;;;;;;;3.42;2.60;;;;;;;16.73;76.67;99342.41;3627272;22;20432;-71
2021/07/09 00:04:35;;;;;;;5.95;3.30;;;;;;;16.68;76.73;99342.22;3596119;40;20056;-71
2021/07/09 00:07:03;;;;;;;3.75;2.45;;;;;;;16.63;77.23;99339.41;3594699;40;20369;-72
2021/07/09 00:09:31;;;;;;;5.53;2.65;;;;;;;16.56;76.89;99334.13;3595062;40;20048;-71
2021/07/09 00:11:59;;;;;;;4.65;2.70;;;;;;;16.53;77.25;99339.06;3596031;40;20042;-72
2021/07/09 00:14:29;;;;;;;9.88;2.95;;;;;;;16.48;77.36;99337.06;3595680;40;20048;-71
2021/07/09 00:16:57;;;;;;;6.40;2.97;;;;;;;16.43;77.73;99338.75;3594411;40;20040;-72
2021/07/09 00:19:26;;;;;;;6.75;3.03;;;;;;;16.44;77.81;99329.72;3595507;40;20313;-71
2021/07/09 00:21:56;;;;;;;5.22;2.65;;;;;;;16.47;77.49;99318.59;3595620;40;20465;-72
2021/07/09 00:24:24;;;;;;;3.70;2.40;;;;;;;16.39;77.42;99327.69;3595025;40;20051;-72
2021/07/09 00:26:52;;;;;;;3.25;2.85;;;;;;;16.30;77.63;99332.47;3595794;40;20110;-71
2021/07/09 00:29:20;;;;;;;6.47;2.63;;;;;;;16.28;78.20;99339.88;3595056;40;20048;-71
2021/07/09 00:31:48;;;;;;;10.43;2.92;;;;;;;16.31;77.64;99334.13;3595638;40;20082;-72
2021/07/09 00:34:17;;;;;;;6.30;3.00;;;;;;;16.30;77.77;99340.50;3595714;40;20084;-72
2021/07/09 00:36:46;;;;;;;4.60;2.60;;;;;;;16.25;77.87;99334.19;3594520;40;20389;-72
2021/07/09 00:39:14;;;;;;;3.17;2.40;;;;;;;16.24;77.73;99329.84;3595936;40;20049;-72
2021/07/09 00:41:43;;;;;;;4.53;2.88;;;;;;;16.19;77.82;99329.69;3596310;40;20313;-73
2021/07/09 00:44:11;;;;;;;4.05;2.50;;;;;;;16.15;78.05;99325.81;3595074;40;20048;-73
2021/07/09 00:46:40;;;;;;;7.25;3.10;;;;;;;16.14;77.87;99326.88;3594867;40;20040;-73
2021/07/09 00:49:10;;;;;;;2.95;2.53;;;;;;;16.12;77.75;99320.91;3595512;40;20101;-72
2021/07/09 00:51:39;;;;;;;3.63;2.05;;;;;;;16.13;78.02;99319.91;3598672;40;20048;-72
2021/07/09 00:54:08;;;;;;;4.70;2.50;;;;;;;16.10;77.51;99321.94;3595632;40;20092;-72
2021/07/09 00:56:36;;;;;;;3.70;2.40;;;;;;;16.10;77.96;99326.47;3595395;40;20081;-72
2021/07/09 00:59:05;;;;;;;2.95;2.40;;;;;;;16.09;77.69;99323.00;3595594;40;20031;-72
2021/07/09 01:01:33;;;;;;;4.75;2.40;;;;;;;16.10;77.59;99315.81;3595903;40;20088;-72
2021/07/09 01:04:01;;;;;;;2.85;2.30;;;;;;;16.13;78.06;99317.25;3593740;40;20394;-72
2021/07/09 01:06:29;;;;;;;5.22;2.78;;;;;;;16.16;77.97;99322.13;3595342;40;20334;-72
2021/07/09 01:08:57;;;;;;;4.18;2.95;;;;;;;16.12;77.67;99319.06;3596326;40;20085;-72
2021/07/09 01:11:26;;;;;;;4.05;2.83;;;;;;;16.12;77.89;99307.56;3593630;40;20095;-73
2021/07/09 01:13:54;;;;;;;5.00;2.85;;;;;;;16.13;77.50;99311.91;3596901;40;20055;-72
2021/07/09 01:16:21;;;;;;;5.57;3.05;;;;;;;16.08;77.45;99308.03;3597087;40;20051;-72
2021/07/09 01:18:49;;;;;;;2.95;2.65;;;;;;;16.05;77.95;99313.78;3598262;40;20059;-71
2021/07/09 01:21:17;;;;;;;5.43;2.97;;;;;;;16.07;77.69;99303.72;3598442;40;20056;-72
2021/07/09 01:23:46;;;;;;;3.58;2.85;;;;;;;16.09;77.74;99306.19;3596670;40;20057;-71
2021/07/09 01:26:16;;;;;;;3.38;2.83;;;;;;;16.06;77.46;99304.75;3598019;40;20040;-72
2021/07/09 01:28:44;;;;;;;6.38;2.75;;;;;;;16.02;77.55;99306.22;3598312;40;20044;-71
2021/07/09 01:31:12;;;;;;;4.22;3.13;;;;;;;16.02;78.12;99306.22;3598266;40;20422;-73
2021/07/09 01:33:39;;;;;;;7.50;3.17;;;;;;;16.06;78.02;99301.28;3598274;40;20052;-72
2021/07/09 01:36:08;;;;;;;4.55;3.08;;;;;;;16.10;77.89;99302.47;3598309;40;20020;-71
2021/07/09 01:38:36;;;;;;;6.18;2.97;;;;;;;16.14;77.46;99302.88;3599250;40;20411;-72
2021/07/09 01:41:04;;;;;;;4.22;2.85;;;;;;;16.14;77.39;99300.19;3595205;40;20025;-70
2021/07/09 01:43:33;;;;;;;5.78;3.13;;;;;;;16.20;77.36;99307.31;3593913;40;20029;-70
2021/07/09 01:46:01;;;;;;;4.45;3.20;;;;;;;16.21;77.61;99309.78;3593796;40;20074;-70
2021/07/09 01:48:29;;;;;;;2.83;2.53;;;;;;;16.27;77.23;99302.75;3593979;40;20028;-71
2021/07/09 01:50:57;;;;;;;5.82;2.80;;;;;;;16.27;76.92;99308.09;3594105;40;20043;-71
2021/07/09 01:53:25;;;;;;;3.25;2.80;;;;;;;16.30;76.98;99297.00;3595123;40;20036;-70
2021/07/09 01:55:53;;;;;;;5.32;2.55;;;;;;;16.33;76.83;99304.56;3597427;40;20055;-72
2021/07/09 01:58:21;;;;;;;6.03;3.08;;;;;;;16.35;76.91;99297.97;3597321;40;20036;-72
2021/07/09 02:00:51;;;;;;;3.75;3.00;;;;;;;16.41;76.72;99303.44;3594683;40;20040;-71
2021/07/09 02:03:19;;;;;;;3.20;2.88;;;;;;;16.40;76.52;99299.97;3594200;40;20048;-71
2021/07/09 02:05:47;;;;;;;5.07;3.00;;;;;;;16.40;76.71;99297.31;3594613;40;20052;-70
2021/07/09 02:08:15;;;;;;;2.70;2.50;;;;;;;16.42;76.33;99300.59;3594739;40;20345;-71
2021/07/09 02:10:44;;;;;;;2.92;2.72;;;;;;;16.41;76.41;99293.63;3595973;40;20033;-71
2021/07/09 02:13:13;;;;;;;4.65;3.00;;;;;;;16.45;76.49;99292.16;3596363;40;20049;-72
2021/07/09 02:15:43;;;;;;;5.60;2.50;;;;;;;16.46;76.37;99296.44;3594596;40;20039;-70
2021/07/09 02:18:14;;;;;;;5.38;3.10;;;;;;;16.52;76.23;99305.41;3594390;40;20370;-71
2021/07/09 02:20:43;;;;;;;4.50;2.65;;;;;;;16.54;75.93;99312.19;3594105;40;20322;-72
2021/07/09 02:23:14;;;;;;;4.50;3.00;;;;;;;16.56;76.38;99317.28;3594451;40;20044;-72
2021/07/09 02:25:42;;;;;;;5.72;2.58;;;;;;;16.56;75.78;99315.44;3594614;40;20055;-71
2021/07/09 02:28:10;;;;;;;5.93;2.95;;;;;;;16.49;75.74;99324.53;3586344;40;20063;-73
2021/07/09 02:30:38;;;;;;;6.93;2.70;;;;;;;16.48;75.88;99309.56;3594632;40;20055;-73
2021/07/09 02:33:06;;;;;;;4.30;3.05;;;;;;;16.42;76.32;99303.25;3594395;40;20029;-72
2021/07/09 02:35:37;;;;;;;4.90;2.92;;;;;;;16.40;76.20;99313.31;3586576;40;20049;-72
2021/07/09 02:38:06;;;;;;;4.05;3.20;;;;;;;16.38;75.95;99310.06;3594626;40;20069;-72
2021/07/09 02:40:34;;;;;;;6.18;2.85;;;;;;;16.35;75.78;99311.31;3594383;40;20408;-72
2021/07/09 02:43:05;;;;;;;6.25;3.50;;;;;;;16.26;76.23;99311.81;3594415;40;20024;-72
2021/07/09 02:45:33;;;;;;;4.93;2.90;;;;;;;16.28;76.15;99305.19;3594685;40;20032;-72
2021/07/09 02:48:15;;;;;;;5.38;3.40;;;;;;;16.30;76.34;99307.66;3596161;40;20573;-73
2021/07/09 02:50:45;;;;;;;5.32;3.38;;;;;;;16.33;76.44;99310.72;3595684;40;20028;-72
2021/07/09 02:53:12;;;;;;;5.30;3.72;;;;;;;16.33;76.06;99309.91;3596673;40;20036;-73
2021/07/09 02:55:40;;;;;;;5.20;3.38;;;;;;;16.32;76.33;99306.41;3595977;40;20032;-72
2021/07/09 02:58:08;;;;;;;4.50;2.85;;;;;;;16.30;76.42;99308.47;3595183;40;20059;-72
2021/07/09 03:00:36;;;;;;;5.43;3.00;;;;;;;16.31;76.35;99306.63;3596390;40;20045;-73
2021/07/09 03:03:04;;;;;;;3.30;3.00;;;;;;;16.33;76.07;99310.72;3596506;40;20032;-72
2021/07/09 03:05:32;;;;;;;5.20;3.20;;;;;;;16.37;76.29;99305.78;3595753;40;20029;-73
2021/07/09 03:08:01;;;;;;;5.40;3.40;;;;;;;16.41;76.41;99300.78;3568847;40;1090459;-73
2021/07/09 03:10:29;;;;;;;6.32;3.45;;;;;;;16.38;76.13;99298.56;3596555;40;20045;-72
2021/07/09 03:12:57;;;;;;;6.05;3.45;;;;;;;16.37;76.30;99299.59;3596962;40;20374;-73
2021/07/09 03:15:24;;;;;;;4.30;3.45;;;;;;;16.34;76.28;99299.00;3597195;40;20055;-72
2021/07/09 03:17:52;;;;;;;10.27;3.58;;;;;;;16.33;76.24;99307.22;3597528;40;20053;-72
2021/07/09 03:20:20;;;;;;;5.47;3.30;;;;;;;16.33;76.42;99301.91;3596963;40;20106;-73
2021/07/09 03:22:48;;;;;;;5.60;3.90;;;;;;;16.35;75.94;99305.16;3596565;40;20032;-73
2021/07/09 03:25:17;;;;;;;7.28;3.70;;;;;;;16.28;76.16;99304.38;3596573;40;20040;-72
2021/07/09 03:27:45;;;;;;;5.70;3.35;;;;;;;16.27;76.41;99300.91;3596601;40;20133;-72
2021/07/09 03:30:14;;;;;;;5.05;3.33;;;;;;;16.27;76.63;99298.22;3596310;40;20033;-73
2021/07/09 03:32:42;;;;;;;4.25;3.50;;;;;;;16.28;76.76;99305.19;3574197;40;20370;-72
2021/07/09 03:35:10;;;;;;;6.53;3.75;;;;;;;16.29;76.32;99301.50;3593996;40;20065;-75
2021/07/09 03:37:38;;;;;;;6.28;3.35;;;;;;;16.35;76.45;99305.97;3596759;40;20080;-74
2021/07/09 03:40:08;;;;;;;5.55;3.35;;;;;;;16.37;76.03;99310.25;3596453;40;20033;-72
2021/07/09 03:42:37;;;;;;;10.13;6.00;;;;;;;16.36;76.06;99301.44;3594713;40;20072;-72
2021/07/09 03:45:06;;;;;;;6.60;3.88;;;;;;;16.29;76.17;99306.03;3595867;40;20033;-73
2021/07/09 03:47:34;;;;;;;4.00;3.35;;;;;;;16.30;76.66;99305.00;3596028;40;20060;-72
2021/07/09 03:50:02;;;;;;;4.47;3.55;;;;;;;16.35;76.38;99305.16;3596207;40;20065;-72
2021/07/09 03:52:30;;;;;;;5.57;3.78;;;;;;;16.34;76.31;99307.00;3593932;40;20044;-72
2021/07/09 03:54:57;;;;;;;5.60;3.65;;;;;;;16.33;76.28;99312.56;3595562;40;20047;-73
2021/07/09 03:57:25;;;;;;;5.43;3.88;;;;;;;16.37;76.09;99311.09;3596267;40;20028;-73
2021/07/09 03:59:54;;;;;;;5.63;3.50;;;;;;;16.38;76.04;99311.91;3595709;40;20053;-73
2021/07/09 04:02:22;;;;;;;6.15;3.75;;;;;;;16.34;76.14;99312.34;3595720;40;20032;-72
2021/07/09 04:04:50;;;;;;;9.70;4.43;;;;;;;16.35;75.93;99311.31;3595327;40;20024;-73
2021/07/09 04:07:18;;;;;;;4.25;3.50;;;;;;;16.27;76.61;99308.91;3596268;40;20065;-72
2021/07/09 04:09:45;;;;;;;5.35;4.43;;;;;;;16.26;76.56;99320.63;3595278;40;20024;-73
2021/07/09 04:12:13;;;;;;;4.35;3.63;;;;;;;16.21;76.46;99320.47;3596086;40;20084;-73
2021/07/09 04:14:41;;;;;;;5.13;3.80;;;;;;;16.21;76.26;99320.47;3595278;40;20020;-74
2021/07/09 04:17:10;;;;;;;4.35;3.95;;;;;;;16.15;76.48;99321.31;3596206;40;20108;-73
2021/07/09 04:19:38;;;;;;;6.55;4.28;;;;;;;16.13;76.93;99315.38;3595626;40;20028;-74
2021/07/09 04:22:06;;;;;;;6.63;4.13;;;;;;;16.11;76.40;99317.44;3595932;40;20025;-75
2021/07/09 04:24:33;;;;;;;5.32;4.13;;;;;;;16.08;76.61;99321.38;3596304;40;20056;-73
2021/07/09 04:27:01;;;;;;;6.22;4.75;;;;;;;16.11;76.53;99325.44;3595818;40;20020;-73
2021/07/09 04:29:29;;;;;;;6.68;4.20;;;;;;;16.16;76.96;99322.94;3595830;40;20395;-73
2021/07/09 04:31:58;;;;;;;9.93;4.28;;;;;;;16.16;76.47;99330.13;3595992;40;20029;-74
2021/07/09 04:34:27;;;;;;;7.68;4.75;;;;;;;16.12;76.74;99331.59;3595747;40;20320;-74
2021/07/09 04:36:55;;;;;;;5.50;4.70;;;;;;;16.15;77.00;99331.97;3595838;40;20051;-74
2021/07/09 04:39:23;;;;;;;5.18;4.68;;;;;;;16.19;76.89;99324.34;3596089;40;20048;-73
2021/07/09 04:41:52;;;;;;;4.30;3.90;;;;;;;16.19;76.77;99332.34;3596087;40;20275;-75
2021/07/09 04:44:20;;;;;;;7.93;4.80;;;;;;;16.16;76.58;99336.25;3596094;40;20077;-73
2021/07/09 04:46:48;;;;;;;6.75;4.28;;;;;;;16.12;76.44;99337.72;3595916;40;20063;-72
2021/07/09 04:49:16;;;;;;;8.57;4.55;;;;;;;16.10;76.51;99345.97;3595132;40;20028;-73
2021/07/09 04:51:45;;;;;;;7.35;4.30;;;;;;;16.08;77.00;99333.84;3596031;40;20043;-71
2021/07/09 04:54:13;;;;;;;5.07;4.00;;;;;;;16.15;76.78;99331.16;3595564;40;20052;-71
2021/07/09 04:56:40;;;;;;;7.90;4.85;;;;;;;16.19;76.57;99332.34;3593277;40;20057;-71
2021/07/09 04:59:08;;;;;;;8.73;4.50;;;;;;;16.21;76.66;99325.78;3593824;40;20434;-71
2021/07/09 05:01:36;;;;;;;6.47;4.47;;;;;;;16.25;76.94;99334.19;3596180;40;20060;-70
2021/07/09 05:04:05;;;;;;;5.45;4.10;;;;;;;16.27;76.35;99337.44;3595708;40;20041;-71
2021/07/09 05:06:33;;;;;;;7.35;4.40;;;;;;;16.28;76.69;99336.38;3595449;40;20048;-71
2021/07/09 05:09:03;;;;;;;8.77;4.60;;;;;;;16.31;76.24;99341.31;3594792;40;20076;-71
2021/07/09 05:11:31;;;;;;;8.35;4.47;;;;;;;16.32;76.07;99345.59;3595759;40;20049;-70
2021/07/09 05:13:59;;;;;;;6.45;4.55;;;;;;;16.31;76.25;99346.63;3595941;40;20036;-71
2021/07/09 05:16:27;;;;;;;5.40;4.20;;;;;;;16.33;76.02;99345.41;3596765;40;20088;-71
2021/07/09 05:18:56;;;;;;;8.48;4.32;;;;;;;16.36;76.23;99349.47;3596515;40;20052;-71
2021/07/09 05:21:25;;;;;;;8.05;4.97;;;;;;;16.40;76.18;99348.00;3596023;40;20048;-71
2021/07/09 05:23:53;;;;;;;6.65;4.13;;;;;;;16.44;76.46;99343.88;3597094;40;20056;-71
2021/07/09 05:26:22;;;;;;;4.97;4.47;;;;;;;16.49;76.17;99345.88;3595466;40;20052;-71
2021/07/09 05:28:50;;;;;;;4.78;4.30;;;;;;;16.61;76.20;99352.13;3596940;40;20279;-71
2021/07/09 05:31:18;;;;;;;7.32;4.80;;;;;;;16.72;76.02;99353.28;3595964;40;20037;-71
2021/07/09 05:33:46;;;;;;;7.85;4.90;;;;;;;16.73;75.82;99350.41;3596893;40;20145;-71
2021/07/09 05:36:14;;;;;;;10.70;5.55;;;;;;;16.72;75.38;99354.09;3596538;40;20337;-71
2021/07/09 05:38:41;;;;;;;10.38;5.13;;;;;;;16.73;75.81;99354.94;3596563;40;20140;-71
2021/07/09 05:41:09;;;;;;;7.53;5.38;;;;;;;16.74;75.26;99360.09;3597019;40;20048;-71
2021/07/09 05:43:38;;;;;;;10.18;5.05;;;;;;;16.69;75.56;99351.88;3596624;40;20052;-71
2021/07/09 05:46:06;;;;;;;10.32;5.95;;;;;;;16.78;75.45;99353.28;3596539;40;20084;-72
2021/07/09 05:48:34;;;;;;;7.63;5.07;;;;;;;16.80;75.17;99363.72;3596411;40;20048;-71
2021/07/09 05:51:02;;;;;;;6.97;5.40;;;;;;;16.80;75.32;99361.88;3595241;40;20068;-72
2021/07/09 05:53:31;;;;;;;8.70;4.93;;;;;;;16.88;75.01;99362.63;3596506;40;20024;-73
2021/07/09 05:55:59;;;;;;;6.70;5.45;;;;;;;16.89;74.56;99361.59;3596239;40;20036;-71
2021/07/09 05:58:27;;;;;;;5.20;4.70;;;;;;;16.94;74.94;99372.41;3596508;40;20058;-71
2021/07/09 06:00:56;;;;;;;9.55;4.63;;;;;;;17.00;74.39;99367.03;3595882;40;20055;-71
2021/07/09 06:03:24;;;;;;;7.53;5.55;;;;;;;17.12;74.51;99368.97;3655229;22;20044;-65
2021/07/09 06:05:52;;;;;;;7.07;5.20;;;;;;;17.18;74.25;99370.75;3600194;40;20055;-66
2021/07/09 06:08:19;;;;;;;7.70;5.40;;;;;;;17.22;74.29;99367.41;3600389;40;20091;-67
2021/07/09 06:10:47;;;;;;;7.82;5.07;;;;;;;17.28;73.91;99374.56;3591163;40;20055;-67
2021/07/09 06:13:15;;;;;;;5.65;4.80;;;;;;;17.27;73.59;99372.94;3599768;40;20356;-66
2021/07/09 06:15:43;;;;;;;10.27;5.95;;;;;;;17.37;73.93;99371.59;3591237;40;20079;-67
2021/07/09 06:18:21;;;;;;;6.55;5.03;;;;;;;17.41;73.88;99378.13;3601677;40;20054;-68
2021/07/09 06:20:49;;;;;;;12.07;5.43;;;;;;;17.37;73.79;99377.75;3592313;40;20074;-68
2021/07/09 06:23:17;;;;;;;6.90;4.72;;;;;;;17.40;73.44;99387.19;3599536;40;20048;-67
2021/07/09 06:25:45;;;;;;;11.73;5.13;;;;;;;17.44;73.32;99383.84;3599795;39;20128;-68
2021/07/09 06:28:13;;;;;;;9.10;5.40;;;;;;;17.46;73.55;99394.28;3599685;40;20040;-68
2021/07/09 06:30:41;;;;;;;6.45;4.72;;;;;;;17.51;73.40;99389.09;3599910;40;20052;-67
2021/07/09 06:33:09;;;;;;;6.45;4.72;;;;;;;17.58;73.28;99387.16;3599557;40;20051;-67
2021/07/09 06:35:39;;;;;;;7.50;5.03;;;;;;;17.69;73.00;99390.94;3599950;40;20059;-67
2021/07/09 06:38:08;;;;;;;6.90;5.30;;;;;;;17.70;72.54;99393.38;3590628;40;20052;-67
2021/07/09 06:40:36;;;;;;;13.38;5.35;;;;;;;17.61;72.87;99393.94;3592450;40;20052;-67
2021/07/09 06:43:04;;;;;;;6.80;5.47;;;;;;;17.61;72.80;99405.44;3602671;40;20069;-67
2021/07/09 06:45:32;;;;;;;5.68;4.78;;;;;;;17.63;73.05;99400.66;3603226;40;20427;-67
2021/07/09 06:48:00;;;;;;;6.55;5.13;;;;;;;17.69;72.51;99399.78;3601985;40;20040;-67
2021/07/09 06:50:28;;;;;;;8.27;5.25;;;;;;;17.80;72.80;99401.75;3592004;40;20031;-67
2021/07/09 06:52:57;;;;;;;6.55;5.60;;;;;;;17.94;72.53;99401.56;3591941;40;20060;-67
2021/07/09 06:55:24;;;;;;;8.50;5.68;;;;;;;17.99;71.98;99402.50;3592459;40;20083;-67
2021/07/09 06:57:52;;;;;;;7.18;5.07;;;;;;;18.03;71.68;99405.56;3601876;40;20052;-69
2021/07/09 07:00:21;;;;;;;9.20;6.43;;;;;;;18.12;71.72;99403.38;3593198;40;20320;-68
2021/07/09 07:02:49;;;;;;;9.75;5.60;;;;;;;18.15;71.51;99408.28;3591948;40;20048;-67
2021/07/09 07:05:18;;;;;;;9.57;5.45;;;;;;;18.17;71.41;99396.31;3600793;40;20047;-68
2021/07/09 07:07:46;;;;;;;10.48;6.15;;;;;;;18.27;71.19;99406.47;3591624;40;20068;-67
2021/07/09 07:10:16;;;;;;;8.10;5.95;;;;;;;18.38;70.72;99410.22;3592064;40;20036;-68
2021/07/09 07:12:47;;;;;;;7.65;5.20;;;;;;;18.44;70.32;99407.44;3590627;40;20048;-67
2021/07/09 07:15:15;;;;;;;8.50;5.13;;;;;;;18.55;70.71;99401.31;3600325;40;20058;-67
2021/07/09 07:17:43;;;;;;;8.52;5.50;;;;;;;18.72;70.29;99408.69;3599236;40;20079;-67
2021/07/09 07:20:12;;;;;;;10.05;5.60;;;;;;;18.85;70.12;99402.31;3600805;40;20148;-67
2021/07/09 07:22:39;;;;;;;12.40;7.88;;;;;;;19.03;69.41;99399.53;3599466;40;20043;-67
2021/07/09 07:25:08;;;;;;;7.82;6.50;;;;;;;19.10;69.26;99402.06;3599152;40;20055;-68
2021/07/09 07:27:37;;;;;;;9.65;6.85;;;;;;;19.26;68.28;99402.19;3598964;40;20055;-68
2021/07/09 07:30:06;;;;;;;8.85;7.65;;;;;;;19.29;67.96;99403.59;3599146;40;20059;-67
2021/07/09 07:32:34;;;;;;;11.80;6.75;;;;;;;19.29;68.01;99407.06;3599569;40;20036;-68
2021/07/09 07:35:02;;;;;;;10.27;6.22;;;;;;;19.42;67.54;99407.88;3599746;40;20059;-67
2021/07/09 07:37:29;;;;;;;9.80;5.93;;;;;;;19.54;67.53;99400.63;3598772;39;20085;-68
2021/07/09 07:39:57;;;;;;;8.77;6.20;;;;;;;19.66;66.42;99408.69;3599995;40;20043;-66
2021/07/09 07:42:25;;;;;;;8.13;6.80;;;;;;;19.75;66.12;99399.22;3599080;40;20040;-67
2021/07/09 07:44:54;;;;;;;9.13;6.70;;;;;;;19.87;66.23;99405.34;3599245;40;20120;-67
2021/07/09 07:47:22;;;;;;;8.18;7.38;;;;;;;20.10;65.74;99409.84;3589488;40;20059;-67
2021/07/09 07:49:50;;;;;;;8.95;7.75;;;;;;;20.13;65.16;99395.94;3599034;40;20051;-67
2021/07/09 07:52:18;;;;;;;8.40;7.07;;;;;;;20.27;64.52;99399.94;3599044;40;20083;-66
2021/07/09 07:54:46;;;;;;;10.95;8.85;;;;;;;20.23;64.39;99395.28;3599116;40;20094;-66
2021/07/09 07:57:13;;;;;;;8.98;7.70;;;;;;;20.19;64.23;99391.47;3598739;40;20044;-66
2021/07/09 07:59:45;;;;;;;15.75;8.75;;;;;;;20.32;64.23;99393.03;3589656;40;20062;-66
2021/07/09 08:02:14;;;;;;;10.30;8.98;;;;;;;20.50;64.14;99387.50;3599306;40;20437;-67
2021/07/09 08:04:42;;;;;;;9.48;7.93;;;;;;;20.45;63.86;99393.56;3598961;40;20040;-65
2021/07/09 08:07:10;;;;;;;12.45;8.25;;;;;;;20.50;63.56;99399.03;3599014;40;20388;-66
2021/07/09 08:09:38;;;;;;;10.98;9.85;;;;;;;20.31;63.66;99396.78;3599390;40;20048;-66
2021/07/09 08:12:07;;;;;;;11.32;9.32;;;;;;;20.22;63.80;99394.50;3589404;40;20044;-66
2021/07/09 08:14:35;;;;;;;12.07;9.10;;;;;;;20.24;64.01;99397.72;3589846;40;20048;-66
2021/07/09 08:17:03;;;;;;;12.35;9.65;;;;;;;20.15;63.83;99403.75;3598098;40;20044;-67
2021/07/09 08:19:33;;;;;;;11.73;10.52;;;;;;;20.11;63.61;99399.91;3580123;40;20048;-67
2021/07/09 08:22:02;;;;;;;12.23;10.88;;;;;;;20.21;63.74;99392.06;3588951;40;20036;-66
2021/07/09 08:24:29;;;;;;;13.48;9.40;;;;;;;20.26;63.46;99384.91;3588844;40;20051;-66
2021/07/09 08:26:58;;;;;;;11.73;9.60;;;;;;;20.48;63.46;99387.72;3588703;40;20044;-66
2021/07/09 08:29:26;;;;;;;11.18;9.25;;;;;;;20.57;63.29;99388.13;3589207;40;20059;-66
2021/07/09 08:31:54;;;;;;;12.25;9.68;;;;;;;20.63;62.69;99383.66;3589606;40;20048;-66
2021/07/09 08:34:23;;;;;;;11.88;9.25;;;;;;;20.67;62.70;99387.50;3591749;40;20393;-67
2021/07/09 08:36:52;;;;;;;11.07;8.93;;;;;;;20.87;61.78;99385.13;3592519;40;20159;-66
2021/07/09 08:39:20;;;;;;;10.93;9.88;;;;;;;20.99;61.43;99377.78;3592552;40;20408;-66
2021/07/09 08:41:49;;;;;;;10.82;8.77;;;;;;;21.16;61.43;99375.06;3593187;40;20080;-66
2021/07/09 08:44:18;;;;;;;10.50;8.43;;;;;;;21.39;60.83;99365.16;3589473;40;20048;-66
2021/07/09 08:46:45;;;;;;;9.07;7.65;;;;;;;21.48;60.39;99361.81;3588606;40;20051;-67
2021/07/09 08:49:16;;;;;;;13.77;8.55;;;;;;;21.64;60.51;99368.19;3588694;40;20044;-67
2021/07/09 08:51:45;;;;;;;9.25;7.43;;;;;;;21.69;60.05;99367.44;3589025;40;20060;-66
2021/07/09 08:54:16;;;;;;;10.32;8.55;;;;;;;21.78;59.50;99363.22;3588990;40;20048;-65
2021/07/09 08:56:44;;;;;;;9.02;7.47;;;;;;;21.76;59.71;99362.69;3581564;40;20056;-66
2021/07/09 08:59:13;;;;;;;10.85;7.88;;;;;;;21.64;59.50;99362.00;3592176;40;20040;-66
2021/07/09 09:01:51;;;;;;;8.98;7.35;;;;;;;21.53;59.69;99371.81;3582718;40;20076;-67
2021/07/09 09:04:27;;;;;;;13.95;8.25;;;;;;;21.35;59.09;99372.09;3589753;40;20055;-67
2021/07/09 09:06:59;;;;;;;8.25;7.25;;;;;;;21.32;59.52;99364.53;3588573;40;20040;-66
2021/07/09 09:09:29;;;;;;;9.77;8.55;;;;;;;21.27;59.90;99370.66;3579125;40;20052;-67
2021/07/09 09:12:05;;;;;;;9.88;8.20;;;;;;;21.22;59.81;99375.94;3588306;40;20033;-66
2021/07/09 09:14:35;;;;;;;11.07;8.82;;;;;;;21.13;60.74;99378.22;3588591;40;20088;-66
2021/07/09 09:17:22;;;;;;;10.25;8.88;;;;;;;21.20;60.38;99380.75;3588066;40;20055;-66
2021/07/09 09:20:13;;;;;;;10.40;8.65;;;;;;;21.18;60.67;99374.81;3588918;40;20045;-66
2021/07/09 09:23:01;;;;;;;9.55;8.65;;;;;;;21.04;60.36;99377.03;3577495;40;20048;-66
2021/07/09 09:25:32;;;;;;;11.05;9.73;;;;;;;21.03;60.26;99376.22;3589979;40;20044;-66
2021/07/09 09:28:04;;;;;;;11.60;9.85;;;;;;;21.12;59.81;99373.94;3589934;40;20049;-65
2021/07/09 09:30:33;;;;;;;10.60;9.52;;;;;;;21.10;60.10;99375.22;3590274;40;20076;-66
2021/07/09 09:33:04;;;;;;;10.50;9.38;;;;;;;21.06;60.03;99372.22;3589716;40;20049;-66
2021/07/09 09:35:37;;;;;;;12.02;8.82;;;;;;;21.06;59.94;99366.84;3579510;40;20440;-66
2021/07/09 09:38:07;;;;;;;10.43;9.37;;;;;;;21.13;60.27;99362.09;3588043;40;20044;-66
2021/07/09 09:40:38;;;;;;;8.98;8.05;;;;;;;21.27;60.51;99362.59;3588519;40;20052;-66
2021/07/09 09:43:09;;;;;;;10.57;8.30;;;;;;;21.45;59.90;99361.47;3588551;40;20068;-65
2021/07/09 09:45:38;;;;;;;10.82;8.98;;;;;;;21.46;59.06;99365.78;3588317;40;20432;-66
2021/07/09 09:48:08;;;;;;;9.93;8.52;;;;;;;21.43;58.82;99363.59;3588841;40;20390;-65
2021/07/09 09:50:45;;;;;;;11.18;8.45;;;;;;;21.33;59.25;99374.25;3579093;40;20384;-66
2021/07/09 09:53:13;;;;;;;10.95;8.55;;;;;;;21.24;59.59;99366.56;3588123;40;20059;-65
2021/07/09 09:55:43;;;;;;;9.68;8.48;;;;;;;21.06;59.80;99357.97;3588248;40;20063;-65
2021/07/09 09:58:14;;;;;;;11.00;8.80;;;;;;;20.96;60.34;99359.44;3578845;40;20392;-65
2021/07/09 10:00:45;;;;;;;9.73;8.57;;;;;;;20.88;61.66;99367.13;3589450;40;20041;-66
2021/07/09 10:03:19;;;;;;;12.82;11.27;;;;;;;20.64;64.65;99371.84;3580535;40;20060;-67
2021/07/09 10:05:49;;;;;;;16.25;11.90;;;;;;;20.50;66.51;99374.88;3580260;40;20044;-67
2021/07/09 10:08:19;;;;;;;19.13;13.65;;;;;;;20.37;67.34;99367.09;3580356;40;20135;-68
2021/07/09 10:10:50;;;;;;;15.82;13.70;;;;;;;20.34;67.82;99364.91;3589649;40;20071;-67
2021/07/09 10:13:19;;;;;;;14.68;12.68;;;;;;;20.37;67.72;99375.16;3589824;40;20044;-67
2021/07/09 10:15:48;;;;;;;16.70;13.52;;;;;;;20.44;67.47;99370.41;3589543;40;20052;-66
2021/07/09 10:18:16;;;;;;;15.43;13.82;;;;;;;20.52;67.92;99371.94;3590050;40;20056;-69
2021/07/09 10:20:47;;;;;;;16.77;14.15;;;;;;;20.72;68.04;99377.63;3589743;40;20400;-67
2021/07/09 10:23:19;;;;;;;17.45;13.45;;;;;;;20.87;67.93;99378.94;3589775;40;20347;-67
2021/07/09 10:25:50;;;;;;;17.35;14.48;;;;;;;20.97;67.04;99369.13;3589624;40;20406;-67
2021/07/09 10:28:21;;;;;;;16.27;14.57;;;;;;;21.12;66.89;99370.44;3589495;40;20129;-67
2021/07/09 10:30:52;;;;;;;16.85;14.75;;;;;;;21.34;66.58;99362.41;3590059;40;20055;-67
2021/07/09 10:33:29;;;;;;;15.18;13.77;;;;;;;21.70;66.46;99367.16;3580147;40;20051;-67
2021/07/09 10:35:58;;;;;;;23.80;13.48;;;;;;;21.95;65.97;99368.50;3589215;40;20099;-67
2021/07/09 10:38:36;;;;;;;14.93;12.73;;;;;;;21.93;64.71;99371.47;3589679;40;20072;-67
2021/07/09 10:41:13;;;;;;;13.43;11.98;;;;;;;21.62;64.60;99364.91;3589449;40;20048;-66
2021/07/09 10:43:41;;;;;;;12.55;11.25;;;;;;;21.50;65.39;99367.72;3589678;40;20068;-66
2021/07/09 10:46:09;;;;;;;11.95;10.07;;;;;;;21.21;64.96;99361.69;3589390;40;20048;-67
2021/07/09 10:48:38;;;;;;;11.80;10.60;;;;;;;21.17;65.25;99368.63;3589401;40;20055;-64
2021/07/09 10:51:06;;;;;;;12.73;11.40;;;;;;;21.23;65.07;99372.19;3589523;40;20051;-64
2021/07/09 10:53:34;;;;;;;12.77;11.48;;;;;;;21.31;65.63;99374.47;3589312;40;20092;-64
2021/07/09 10:56:04;;;;;;;15.75;11.38;;;;;;;21.40;65.40;99372.19;3591015;40;20032;-64
2021/07/09 10:58:41;;;;;;;13.55;12.15;;;;;;;21.44;64.56;99366.06;3591462;40;20053;-64
2021/07/09 11:01:35;;;;;;;12.38;10.70;;;;;;;21.65;63.98;99369.00;3581087;40;20052;-64
2021/07/09 11:04:14;;;;;;;13.02;10.82;;;;;;;21.70;62.48;99363.66;3580323;40;20055;-64
2021/07/09 11:06:47;;;;;;;;;;;;;;;21.82;61.73;99364.34;3590105;40;20044;-65
2021/07/09 11:09:19;;;;;;;11.77;9.50;;;;;;;22.10;61.23;99359.78;3589653;40;19932;-64
2021/07/09 11:11:53;;;;;;;13.18;10.93;;;;;;;22.36;60.47;99358.16;3589026;40;20138;-64
2021/07/09 11:14:36;;;;;;;9.85;8.85;;;;;;;22.75;59.42;99353.38;3589133;40;20052;-65
2021/07/09 11:17:17;;;;;;;11.70;9.80;;;;;;;22.90;56.31;99348.13;3588751;40;20048;-65
2021/07/09 11:19:51;;;;;;;12.18;9.82;;;;;;;22.94;55.36;99343.84;3589319;40;20056;-65
2021/07/09 11:22:24;;;;;;;10.93;9.82;;;;;;;23.08;54.36;99354.16;3579859;40;20416;-65
2021/07/09 11:24:57;;;;;;;11.15;8.90;;;;;;;23.19;55.00;99350.44;3589543;40;20055;-65
2021/07/09 11:27:32;;;;;;;10.82;9.30;;;;;;;23.30;53.71;99345.88;3591272;40;20053;-67
2021/07/09 11:30:04;;;;;;;10.35;9.25;;;;;;;23.37;53.54;99341.06;3584743;40;20045;-65
2021/07/09 11:32:37;;;;;;;10.07;9.05;;;;;;;23.41;53.31;99347.56;3595441;40;20044;-65
2021/07/09 11:35:06;;;;;;;11.57;9.10;;;;;;;23.60;52.29;99342.53;3594666;40;20048;-66
2021/07/09 11:37:36;;;;;;;15.00;10.07;;;;;;;23.53;51.42;99333.84;3594589;40;20056;-66
2021/07/09 11:40:07;;;;;;;18.50;9.55;;;;;;;23.52;51.00;99333.06;3594363;40;20045;-66